DRI Storm Peak Lab. Weather observations

Data are for 5 minute period ending at time listed.
 Day   Time    Ave.   Ave.  Ave.  Vector  Max.   Total    Baro.    Solar      Aerosol      Ave.  Ultrafine   Snow  
  of    of     Air    Rel.  Wind   Wind   Wind  Precip.   Pres.  Radiation   Aerosol      Ozone   Aerosol    Depth 
Year   Day     Temp.  Hum.  Speed  Dir.   Gust                               Ave.   Max.            Ave.           
2018   (MST)    F      %     mph   deg.    mph    in.      mb.     w/m2         #/cm3      ppbv    #/cm3      in.  
-------------------------------------------------------------------------------------------------------------------
 140   20:35   38.8    61    2.9   160     3.7   999.00    691.7    999.0    999000   999000   999.0    999000   999.0
 140   20:40   38.8    61    3.4   160     4.0   999.00    691.7    999.0    999000   999000   999.0    999000   999.0
 140   20:45   39.6    57    3.4   160     4.2   999.00    691.7    999.0    999000   999000   999.0    999000   999.0
 140   20:50   40.0    56    4.4   160    10.4   999.00    691.8    999.0    999000   999000   999.0    999000   999.0
 140   20:55   39.9    56   11.1   161    13.2   999.00    691.8    999.0    999000   999000   999.0    999000   999.0
 140   21:00   39.9    55   13.0   161    16.9   999.00    691.9    999.0    999000   999000   999.0    999000   999.0
 140   21:05   39.5    57   13.0   161    15.4   999.00    692.0    999.0    999000   999000   999.0    999000   999.0
 140   21:10   39.3    58   11.7   161    14.1   999.00    692.1    999.0    999000   999000   999.0    999000   999.0
 140   21:15   39.3    58   10.9   161    12.0   999.00    692.0    999.0    999000   999000   999.0    999000   999.0
 140   21:20   39.1    59    9.1   161    10.7   999.00    692.1    999.0    999000   999000   999.0    999000   999.0
 140   21:25   39.1    59    8.8   161     9.8   999.00    692.1    999.0    999000   999000   999.0    999000   999.0
 140   21:30   39.2    59    8.6   161     9.8   999.00    692.0    999.0    999000   999000   999.0    999000   999.0
 140   21:35   39.1    59    9.4   161    11.1   999.00    692.0    999.0    999000   999000   999.0    999000   999.0
 140   21:40   39.2    58    8.5   161    10.2   999.00    692.0    999.0    999000   999000   999.0    999000   999.0
 140   21:45   39.2    58    7.0   161    10.9   999.00    692.1    999.0    999000   999000   999.0    999000   999.0
 140   21:50   39.2    58    2.6   161     3.8   999.00    692.1    999.0    999000   999000   999.0    999000   999.0
 140   21:55   39.3    57    2.0   161     2.9   999.00    692.0    999.0    999000   999000   999.0    999000   999.0
 140   22:00   39.2    58    2.2   161     3.3   999.00    692.1    999.0    999000   999000   999.0    999000   999.0
 140   22:05   38.8    60    1.9   161     2.7   999.00    692.2    999.0    999000   999000   999.0    999000   999.0
 140   22:10   38.7    60    1.8   161     2.0   999.00    692.1    999.0    999000   999000   999.0    999000   999.0
 140   22:15   38.9    59    1.9   161     2.7   999.00    692.1    999.0    999000   999000   999.0    999000   999.0
 140   22:20   38.7    60    1.9   161     2.9   999.00    692.1    999.0    999000   999000   999.0    999000   999.0
 140   22:25   37.8    64    2.3   161     3.1   999.00    692.1    999.0    999000   999000   999.0    999000   999.0
 140   22:30   36.9    69    2.1   160     3.3   999.00    692.1    999.0    999000   999000   999.0    999000   999.0
 140   22:35   36.7    70    3.2   160     9.4   999.00    692.1    999.0    999000   999000   999.0    999000   999.0
 140   22:40   36.7    72    3.3   159    10.0   999.00    692.1    999.0    999000   999000   999.0    999000   999.0
 140   22:45   36.7    72    3.0   159     4.4   999.00    692.0    999.0    999000   999000   999.0    999000   999.0
 140   22:50   36.6    73    3.2   159     5.5   999.00    692.0    999.0    999000   999000   999.0    999000   999.0
 140   22:55   36.7    72    3.0   159     4.8   999.00    692.0    999.0    999000   999000   999.0    999000   999.0
 140   23:00   36.7    72    2.9   159     6.8   999.00    692.0    999.0    999000   999000   999.0    999000   999.0
 140   23:05   36.4    73    3.1   159     5.2   999.00    691.9    999.0    999000   999000   999.0    999000   999.0
 140   23:10   36.4    73    2.9   159     4.8   999.00    691.8    999.0    999000   999000   999.0    999000   999.0
 140   23:15   36.5    72    2.4   159     3.8   999.00    691.8    999.0    999000   999000   999.0    999000   999.0
 140   23:20   36.6    70    2.2   159     3.7   999.00    691.7    999.0    999000   999000   999.0    999000   999.0
 140   23:25   36.9    68    2.9   159     3.8   999.00    691.6    999.0    999000   999000   999.0    999000   999.0
 140   23:30   37.3    66    3.6   159     4.6   999.00    691.7    999.0    999000   999000   999.0    999000   999.0
 140   23:35   37.7    65    9.1   159    10.9   999.00    691.6    999.0    999000   999000   999.0    999000   999.0
 140   23:40   37.5    66    9.5   158    11.8   999.00    691.6    999.0    999000   999000   999.0    999000   999.0
 140   23:45   37.1    68    8.1   157    11.7   999.00    691.5    999.0    999000   999000   999.0    999000   999.0
 140   23:50   37.0    68    8.3   151    13.0   999.00    691.5    999.0    999000   999000   999.0    999000   999.0
 140   23:55   37.0    69    8.1   144    12.2   999.00    691.5    999.0    999000   999000   999.0    999000   999.0
 141    0:00   36.9    69    8.5   144    12.6   999.00    691.4    999.0    999000   999000   999.0    999000   999.0
 141    0:05   37.0    69    9.3   144    13.5   999.00    691.4    999.0    999000   999000   999.0    999000   999.0
 141    0:10   36.7    73    7.8   144    12.8   999.00    691.4    999.0    999000   999000   999.0    999000   999.0
 141    0:15   36.6    74    8.0   142    13.3   999.00    691.4    999.0    999000   999000   999.0    999000   999.0
 141    0:20   36.5    76    8.7   142    13.0   999.00    691.4    999.0    999000   999000   999.0    999000   999.0
 141    0:25   36.5    76   10.8   142    16.7   999.00    691.3    999.0    999000   999000   999.0    999000   999.0
 141    0:30   36.6    75   12.4   142    17.2   999.00    691.2    999.0    999000   999000   999.0    999000   999.0
 141    0:35   36.6    76   11.2   142    17.6   999.00    691.2    999.0    999000   999000   999.0    999000   999.0
 141    0:40   36.6    75   12.3   142    16.5   999.00    691.2    999.0    999000   999000   999.0    999000   999.0
 141    0:45   36.8    73   13.5   142    16.5   999.00    691.2    999.0    999000   999000   999.0    999000   999.0
 141    0:50   36.9    73   13.9   142    17.2   999.00    691.2    999.0    999000   999000   999.0    999000   999.0
 141    0:55   36.8    73   13.3   142    15.2   999.00    691.2    999.0    999000   999000   999.0    999000   999.0
 141    1:00   36.9    71   11.0   142    13.7   999.00    691.2    999.0    999000   999000   999.0    999000   999.0
 141    1:05   37.1    69   10.1   142    11.8   999.00    691.2    999.0    999000   999000   999.0    999000   999.0
 141    1:10   37.7    66   10.2   144    13.3   999.00    691.1    999.0    999000   999000   999.0    999000   999.0
 141    1:15   38.1    64    9.5   150    11.3   999.00    691.1    999.0    999000   999000   999.0    999000   999.0
 141    1:20   37.8    66   12.8   150    15.6   999.00    691.0    999.0    999000   999000   999.0    999000   999.0
 141    1:25   37.7    66   13.9   149    14.6   999.00    691.0    999.0    999000   999000   999.0    999000   999.0
 141    1:30   37.7    66   13.9   149    15.2   999.00    691.0    999.0    999000   999000   999.0    999000   999.0
 141    1:35   37.8    65   14.0   149    15.6   999.00    690.9    999.0    999000   999000   999.0    999000   999.0
 141    1:40   37.9    64   14.8   147    16.5   999.00    690.9    999.0    999000   999000   999.0    999000   999.0
 141    1:45   38.0    64   15.2   144    18.0   999.00    690.9    999.0    999000   999000   999.0    999000   999.0
 141    1:50   38.2    63   14.4   144    16.7   999.00    691.0    999.0    999000   999000   999.0    999000   999.0
 141    1:55   38.0    64   13.6   144    16.7   999.00    691.0    999.0    999000   999000   999.0    999000   999.0
 141    2:00   38.1    64   12.8   144    17.1   999.00    691.0    999.0    999000   999000   999.0    999000   999.0
 141    2:05   38.1    63   10.2   145    13.2   999.00    691.0    999.0    999000   999000   999.0    999000   999.0
 141    2:10   38.2    63    9.9   150    12.6   999.00    691.0    999.0    999000   999000   999.0    999000   999.0
 141    2:15   38.3    62   10.0   150    12.2   999.00    691.0    999.0    999000   999000   999.0    999000   999.0
 141    2:20   37.9    64   11.2   149    13.2   999.00    691.0    999.0    999000   999000   999.0    999000   999.0
 141    2:25   37.2    67   13.4   148    15.2   999.00    690.9    999.0    999000   999000   999.0    999000   999.0
 141    2:30   37.0    69   11.7   147    14.3   999.00    690.8    999.0    999000   999000   999.0    999000   999.0
 141    2:35   36.5    71   11.1   147    14.4   999.00    690.8    999.0    999000   999000   999.0    999000   999.0
 141    2:40   36.4    72   11.3   146    14.3   999.00    690.9    999.0    999000   999000   999.0    999000   999.0
 141    2:45   36.6    71    9.1   144    13.5   999.00    690.8    999.0    999000   999000   999.0    999000   999.0
 141    2:50   36.5    71    9.8   144    13.3   999.00    690.8    999.0    999000   999000   999.0    999000   999.0
 141    2:55   36.6    70   10.2   142    14.3   999.00    690.9    999.0    999000   999000   999.0    999000   999.0
 141    3:00   36.6    70    7.5   142    13.7   999.00    690.9    999.0    999000   999000   999.0    999000   999.0
 141    3:05   36.6    70    8.7   142    16.1   999.00    690.8    999.0    999000   999000   999.0    999000   999.0
 141    3:10   36.7    71    9.6   141    15.0   999.00    690.8    999.0    999000   999000   999.0    999000   999.0
 141    3:15   36.7    71   11.6   140    19.1   999.00    690.8    999.0    999000   999000   999.0    999000   999.0
 141    3:20   36.4    73   11.2   140    18.5   999.00    690.8    999.0    999000   999000   999.0    999000   999.0
 141    3:25   36.4    73   10.9   139    16.1   999.00    690.8    999.0    999000   999000   999.0    999000   999.0
 141    3:30   36.2    73   10.6   139    14.6   999.00    690.9    999.0    999000   999000   999.0    999000   999.0
 141    3:35   36.2    74    9.7   138    15.6   999.00    690.9    999.0    999000   999000   999.0    999000   999.0
 141    3:40   36.4    73   12.6   138    17.1   999.00    690.9    999.0    999000   999000   999.0    999000   999.0
 141    3:45   36.4    71   11.8   138    16.3   999.00    690.8    999.0    999000   999000   999.0    999000   999.0
 141    3:50   36.4    70   11.3   138    15.2   999.00    690.8    999.0    999000   999000   999.0    999000   999.0
 141    3:55   36.3    70   11.4   137    16.1   999.00    690.8    999.0    999000   999000   999.0    999000   999.0
 141    4:00   36.5    68   11.5   137    18.9   999.00    690.8    999.0    999000   999000   999.0    999000   999.0
 141    4:05   36.5    67   10.2   137    16.1   999.00    690.8    999.0    999000   999000   999.0    999000   999.0
 141    4:10   36.7    66    9.8   137    13.7   999.00    690.8    999.0    999000   999000   999.0    999000   999.0
 141    4:15   36.8    65    9.7   137    14.8   999.00    690.9    999.0    999000   999000   999.0    999000   999.0
 141    4:20   36.8    65   10.1   137    16.3   999.00    690.9    999.0    999000   999000   999.0    999000   999.0
 141    4:25   36.9    63   10.2   137    16.9   999.00    690.9    999.0    999000   999000   999.0    999000   999.0
 141    4:30   37.0    62   11.3   137    14.8   999.00    690.9    999.0    999000   999000   999.0    999000   999.0
 141    4:35   37.3    60   11.5   137    15.2   999.00    691.0    999.0    999000   999000   999.0    999000   999.0
 141    4:40   37.6    58   10.6   137    15.0   999.00    690.9    999.0    999000   999000   999.0    999000   999.0
 141    4:45   37.7    58    8.9   137    14.4   999.00    690.9    999.0    999000   999000   999.0    999000   999.0
 141    4:50   38.3    54   12.0   137    15.9   999.00    690.9    999.0    999000   999000   999.0    999000   999.0
 141    4:55   39.1    51   13.1   137    16.9   999.00    690.9    999.0    999000   999000   999.0    999000   999.0
 141    5:00   39.2    51   12.1   137    15.0   999.00    690.9    999.0    999000   999000   999.0    999000   999.0
 141    5:05   38.8    52   11.2   138    15.8   999.00    690.9    999.0    999000   999000   999.0    999000   999.0
 141    5:10   39.1    51    9.5   138    14.8   999.00    691.0    999.0    999000   999000   999.0    999000   999.0
 141    5:15   39.0    52   12.1   138    16.5   999.00    691.0    999.0    999000   999000   999.0    999000   999.0
 141    5:20   38.7    53   11.3   137    14.6   999.00    691.0    999.0    999000   999000   999.0    999000   999.0
 141    5:25   38.7    54   11.1   137    15.6   999.00    691.0    999.0    999000   999000   999.0    999000   999.0
 141    5:30   38.7    52    9.2   137    14.3   999.00    691.0    999.0    999000   999000   999.0    999000   999.0
 141    5:35   38.8    52   10.4   137    15.4   999.00    691.0    999.0    999000   999000   999.0    999000   999.0
 141    5:40   39.5    51    8.8   137    13.9   999.00    691.1    999.0    999000   999000   999.0    999000   999.0
 141    5:45   39.6    50    8.2   137    13.3   999.00    691.1    999.0    999000   999000   999.0    999000   999.0
 141    5:50   39.8    50    8.7   137    11.7   999.00    691.2    999.0    999000   999000   999.0    999000   999.0
 141    5:55   39.7    50    7.4   137    12.6   999.00    691.2    999.0    999000   999000   999.0    999000   999.0
 141    6:00   40.0    49    9.6   137    12.6   999.00    691.2    999.0    999000   999000   999.0    999000   999.0
 141    6:05   40.5    47    8.7   137    11.1   999.00    691.3    999.0    999000   999000   999.0    999000   999.0
 141    6:10   40.7    48    7.2   137    11.5   999.00    691.3    999.0    999000   999000   999.0    999000   999.0
 141    6:15   40.6    48    3.6   137     5.2   999.00    691.3    999.0    999000   999000   999.0    999000   999.0
 141    6:20   40.4    49    3.9   137     5.2   999.00    691.3    999.0    999000   999000   999.0    999000   999.0
 141    6:25   40.7    46    3.6   138     5.0   999.00    691.3    999.0    999000   999000   999.0    999000   999.0
 141    6:30   41.4    43    3.5   138     5.2   999.00    691.4    999.0    999000   999000   999.0    999000   999.0
 141    6:35   41.9    41    2.7   138     4.2   999.00    691.4    999.0    999000   999000   999.0    999000   999.0
 141    6:40   42.3    41    3.0   138     4.8   999.00    691.5    999.0    999000   999000   999.0    999000   999.0
 141    6:45   42.5    42    2.5   138     3.7   999.00    691.4    999.0    999000   999000   999.0    999000   999.0
 141    6:50   42.4    43    2.1   138     2.9   999.00    691.5    999.0    999000   999000   999.0    999000   999.0
 141    6:55   42.7    42    1.8   138     2.2   999.00    691.5    999.0    999000   999000   999.0    999000   999.0
 141    7:00   43.6    42    1.8   137     1.8   999.00    691.5    999.0    999000   999000   999.0    999000   999.0
 141    7:05   43.1    44    1.8   137     2.2   999.00    691.5    999.0    999000   999000   999.0    999000   999.0
 141    7:10   42.7    46    1.8   137     1.8   999.00    691.6    999.0    999000   999000   999.0    999000   999.0
 141    7:15   42.9    46    1.8   137     2.4   999.00    691.6    999.0    999000   999000   999.0    999000   999.0
 141    7:20   43.2    46    1.8   137     2.2   999.00    691.7    999.0    999000   999000   999.0    999000   999.0
 141    7:25   43.6    46    1.8   137     2.2   999.00    691.7    999.0    999000   999000   999.0    999000   999.0
 141    7:30   43.8    46    1.8   137     1.8   999.00    691.7    999.0    999000   999000   999.0    999000   999.0
 141    7:35   44.0    45    1.8   137     1.8   999.00    691.7    999.0    999000   999000   999.0    999000   999.0
 141    7:40   44.4    43    1.8   138     2.0   999.00    691.8    999.0    999000   999000   999.0    999000   999.0
 141    7:45   44.1    44    1.8   138     1.8   999.00    691.8    999.0    999000   999000   999.0    999000   999.0
 141    7:50   44.7    40    1.8   138     1.8   999.00    691.8    999.0    999000   999000   999.0    999000   999.0
 141    7:55   44.9    43    1.8   138     2.0   999.00    691.8    999.0    999000   999000   999.0    999000   999.0
 141    8:00   45.7    40    1.8   138     1.8   999.00    691.9    999.0    999000   999000   999.0    999000   999.0
 141    8:05   46.3    39    1.8   138     1.8   999.00    691.9    999.0    999000   999000   999.0    999000   999.0
 141    8:10   45.9    37    1.8   138     1.8   999.00    691.9    999.0    999000   999000   999.0    999000   999.0
 141    8:15   46.4    34    1.8   138     1.8   999.00    691.9    999.0    999000   999000   999.0    999000   999.0
 141    8:20   46.9    34    1.8   138     1.8   999.00    691.9    999.0    999000   999000   999.0    999000   999.0
 141    8:25   47.3    35    1.8   138     1.8   999.00    691.9    999.0    999000   999000   999.0    999000   999.0
 141    8:30   47.3    32    1.8   138     2.0   999.00    691.9    999.0    999000   999000   999.0    999000   999.0
 141    8:35   45.7    34    1.8   138     1.8   999.00    691.9    999.0    999000   999000   999.0    999000   999.0
 141    8:40   47.1    35    1.8   138     1.8   999.00    691.9    999.0    999000   999000   999.0    999000   999.0
 141    8:45   47.2    37    1.8   138     1.8   999.00    691.9    999.0    999000   999000   999.0    999000   999.0
 141    8:50   47.1    37    1.8   138     1.8   999.00    692.0    999.0    999000   999000   999.0    999000   999.0
 141    8:55   47.8    38    1.8   138     2.0   999.00    691.9    999.0    999000   999000   999.0    999000   999.0
 141    9:00   48.1    38    1.8   137     2.0   999.00    691.9    999.0    999000   999000   999.0    999000   999.0
 141    9:05   47.9    37    2.0   138     2.7   999.00    691.9    999.0    999000   999000   999.0    999000   999.0
 141    9:10   48.1    38    2.0   137     3.3   999.00    691.9    999.0    999000   999000   999.0    999000   999.0
 141    9:15   48.2    37    2.3   138     3.7   999.00    691.9    999.0    999000   999000   999.0    999000   999.0
 141    9:20   47.0    39    2.1   138     3.1   999.00    692.0    999.0    999000   999000   999.0    999000   999.0
 141    9:25   48.2    39    1.9   138     2.7   999.00    692.0    999.0    999000   999000   999.0    999000   999.0
 141    9:30   48.3    41    1.8   138     2.2   999.00    692.0    999.0    999000   999000   999.0    999000   999.0
 141    9:35   48.7    42    1.8   138     1.8   999.00    691.9    999.0    999000   999000   999.0    999000   999.0
 141    9:40   47.5    42    1.9   138     2.7   999.00    692.0    999.0    999000   999000   999.0    999000   999.0
 141    9:45   48.5    42    1.8   138     1.8   999.00    692.0    999.0    999000   999000   999.0    999000   999.0
 141    9:50   48.5    40    1.8   138     1.8   999.00    692.0    999.0    999000   999000   999.0    999000   999.0
 141    9:55   48.2    38    1.8   138     1.8   999.00    692.0    999.0    999000   999000   999.0    999000   999.0
 141   10:00   47.3    39    2.2   138     3.5   999.00    692.0    999.0    999000   999000   999.0    999000   999.0
 141   10:05   46.9    38    2.4   138     3.8   999.00    692.0    999.0    999000   999000   999.0    999000   999.0
 141   10:10   47.6    37    1.9   138     3.7   999.00    692.0    999.0    999000   999000   999.0    999000   999.0
 141   10:15   48.1    37    2.4   138     5.0   999.00    692.0    999.0    999000   999000   999.0    999000   999.0
 141   10:20   48.1    34    2.0   138     3.1   999.00    692.0    999.0    999000   999000   999.0    999000   999.0
 141   10:25   48.0    36    2.4   138     3.5   999.00    692.1    999.0    999000   999000   999.0    999000   999.0
 141   10:30   47.9    37    2.3   138     3.7   999.00    692.0    999.0    999000   999000   999.0    999000   999.0
 141   10:35   49.7    39    2.0   138     3.1   999.00    692.1    999.0    999000   999000   999.0    999000   999.0
 141   10:40   49.9    41    2.2   138     4.4   999.00    692.0    999.0    999000   999000   999.0    999000   999.0
 141   10:45   51.0    39    3.3   138     5.9   999.00    692.0    999.0    999000   999000   999.0    999000   999.0
 141   10:50   51.6    38    2.0   138     3.3   999.00    692.0    999.0    999000   999000   999.0    999000   999.0
 141   10:55   50.7    36    2.0   138     3.3   999.00    692.0    999.0    999000   999000   999.0    999000   999.0
 141   11:00   50.4    36    1.9   138     2.9   999.00    692.0    999.0    999000   999000   999.0    999000   999.0
 141   11:05   50.7    32    2.2   138     3.8   999.00    692.0    999.0    999000   999000   999.0    999000   999.0
 141   11:10   49.4    35    2.2   138     4.0   999.00    692.0    999.0    999000   999000   999.0    999000   999.0
 141   11:15   49.0    37    2.1   138     3.8   999.00    692.0    999.0    999000   999000   999.0    999000   999.0
 141   11:20   49.4    36    2.0   138     3.5   999.00    692.0    999.0    999000   999000   999.0    999000   999.0
 141   11:25   51.8    38    2.5   138     4.2   999.00    692.0    999.0    999000   999000   999.0    999000   999.0
 141   11:30   51.9    36    3.0   138     6.3   999.00    692.0    999.0    999000   999000   999.0    999000   999.0
 141   11:35   51.9    35    2.0   138     3.7   999.00    692.0    999.0    999000   999000   999.0    999000   999.0
 141   11:40   52.4    35    3.0   138     5.7   999.00    692.0    999.0    999000   999000   999.0    999000   999.0
 141   11:45   51.4    33    2.1   138     3.3   999.00    692.0    999.0    999000   999000   999.0    999000   999.0
 141   11:50   49.9    34    2.3   138     4.2   999.00    692.0    999.0    999000   999000   999.0    999000   999.0
 141   11:55   49.5    34    2.2   138     6.1   999.00    691.9    999.0    999000   999000   999.0    999000   999.0
 141   12:00   48.9    35    4.7   142    11.3   999.00    691.9    999.0    999000   999000   999.0    999000   999.0
 141   12:05   50.4    34    2.3   142     4.2   999.00    691.9    999.0    999000   999000   999.0    999000   999.0
 141   12:10   51.4    30    2.5   142     9.2   999.00    691.8    999.0    999000   999000   999.0    999000   999.0
 141   12:15   49.3    31    9.8   142    16.9   999.00    691.8    999.0    999000   999000   999.0    999000   999.0
 141   12:20   49.3    31    5.5   142    16.5   999.00    691.9    999.0    999000   999000   999.0    999000   999.0
 141   12:25   49.5    33    9.2   145    18.2   999.00    691.8    999.0    999000   999000   999.0    999000   999.0
 141   12:30   51.5    33    3.3   145     5.7   999.00    691.8    999.0    999000   999000   999.0    999000   999.0
 141   12:35   52.3    33    4.0   144     8.9   999.00    691.8    999.0    999000   999000   999.0    999000   999.0
 141   12:40   50.5    32    3.2   145     6.8   999.00    691.8    999.0    999000   999000   999.0    999000   999.0
 141   12:45   50.3    32    5.5   145    11.5   999.00    691.8    999.0    999000   999000   999.0    999000   999.0
 141   12:50   50.8    30   12.5   145    22.1   999.00    691.7    999.0    999000   999000   999.0    999000   999.0
 141   12:55   51.2    31    7.9   145    20.2   999.00    691.7    999.0    999000   999000   999.0    999000   999.0
 141   13:00   51.3    32    4.9   145    13.5   999.00    691.8    999.0    999000   999000   999.0    999000   999.0
 141   13:05   50.8    31    5.4   145    13.3   999.00    691.8    999.0    999000   999000   999.0    999000   999.0
 141   13:10   50.5    32    4.7   145     8.1   999.00    691.8    999.0    999000   999000   999.0    999000   999.0
 141   13:15   50.1    30    2.8   145     6.1   999.00    691.8    999.0    999000   999000   999.0    999000   999.0
 141   13:20   49.6    33    4.3   145    10.9   999.00    691.8    999.0    999000   999000   999.0    999000   999.0
 141   13:25   49.7    33    3.5   145    10.0   999.00    691.7    999.0    999000   999000   999.0    999000   999.0
 141   13:30   50.6    32    4.2   145    10.4   999.00    691.6    999.0    999000   999000   999.0    999000   999.0
 141   13:35   51.9    32    4.1   145     9.6   999.00    691.7    999.0    999000   999000   999.0    999000   999.0
 141   13:40   51.9    32    2.1   145     3.7   999.00    691.7    999.0    999000   999000   999.0    999000   999.0
 141   13:45   50.8    32    2.3   145     4.0   999.00    691.6    999.0    999000   999000   999.0    999000   999.0
 141   13:50   51.3    30    2.0   145     3.5   999.00    691.6    999.0    999000   999000   999.0    999000   999.0
 141   13:55   51.3    31    1.8   145     2.2   999.00    691.6    999.0    999000   999000   999.0    999000   999.0
 141   14:00   52.3    31    4.7   145    11.7   999.00    691.6    999.0    999000   999000   999.0    999000   999.0
 141   14:05   51.1    27    3.9   145    13.0   999.00    691.6    999.0    999000   999000   999.0    999000   999.0
 141   14:10   52.2    28    4.7   145    11.5   999.00    691.5    999.0    999000   999000   999.0    999000   999.0
 141   14:15   51.8    30    6.0   145    11.7   999.00    691.5    999.0    999000   999000   999.0    999000   999.0
 141   14:20   51.0    30    3.9   145    11.7   999.00    691.5    999.0    999000   999000   999.0    999000   999.0
 141   14:25   51.7    31    7.5   143    18.5   999.00    691.4    999.0    999000   999000   999.0    999000   999.0
 141   14:30   50.9    33    2.1   143     3.7   999.00    691.4    999.0    999000   999000   999.0    999000   999.0
 141   14:35   51.4    32    2.3   143     3.8   999.00    691.3    999.0    999000   999000   999.0    999000   999.0
 141   14:40   51.7    31    1.8   143     2.9   999.00    691.3    999.0    999000   999000   999.0    999000   999.0
 141   14:45   51.7    32    2.7   143     5.0   999.00    691.3    999.0    999000   999000   999.0    999000   999.0
 141   14:50   50.8    33    1.8   143     1.8   999.00    691.3    999.0    999000   999000   999.0    999000   999.0
 141   14:55   51.6    31    2.8   143     7.4   999.00    691.3    999.0    999000   999000   999.0    999000   999.0
 141   15:00   52.2    30    2.8   143     7.6   999.00    691.3    999.0    999000   999000   999.0    999000   999.0
 141   15:05   52.0    31    7.0   143    12.6   999.00    691.2    999.0    999000   999000   999.0    999000   999.0
 141   15:10   51.7    31    4.7   144     9.2   999.00    691.2    999.0    999000   999000   999.0    999000   999.0
 141   15:15   52.0    30    4.4   144     9.6   999.00    691.1    999.0    999000   999000   999.0    999000   999.0
 141   15:20   51.2    29    2.4   144     3.5   999.00    691.1    999.0    999000   999000   999.0    999000   999.0
 141   15:25   52.7    30    3.2   144     8.3   999.00    691.1    999.0    999000   999000   999.0    999000   999.0
 141   15:30   51.8    28    7.8   144    13.2   999.00    691.0    999.0    999000   999000   999.0    999000   999.0
 141   15:35   51.4    27    2.9   144     5.9   999.00    691.0    999.0    999000   999000   999.0    999000   999.0
 141   15:40   51.9    31    5.0   144    10.0   999.00    690.9    999.0    999000   999000   999.0    999000   999.0
 141   15:45   51.9    30    3.8   144     6.1   999.00    691.0    999.0    999000   999000   999.0    999000   999.0
 141   15:50   52.4    30    3.4   144     7.8   999.00    691.0    999.0    999000   999000   999.0    999000   999.0
 141   15:55   52.6    29    3.7   144     9.8   999.00    690.9    999.0    999000   999000   999.0    999000   999.0
 141   16:00   52.8    29    3.9   144     7.0   999.00    690.9    999.0    999000   999000   999.0    999000   999.0
 141   16:05   52.1    28    3.4   144     7.2   999.00    690.9    999.0    999000   999000   999.0    999000   999.0
 141   16:10   52.6    29    2.2   144     3.3   999.00    691.0    999.0    999000   999000   999.0    999000   999.0
 141   16:15   53.1    27    3.0   144     6.8   999.00    691.1    999.0    999000   999000   999.0    999000   999.0
 141   16:20   53.7    26    2.7   144     3.8   999.00    691.1    999.0    999000   999000   999.0    999000   999.0
 141   16:25   52.8    28    2.6   144     4.4   999.00    691.1    999.0    999000   999000   999.0    999000   999.0
 141   16:30   52.1    28    3.2   144     5.2   999.00    691.1    999.0    999000   999000   999.0    999000   999.0
 141   16:35   51.2    28    3.6   144     7.8   999.00    691.0    999.0    999000   999000   999.0    999000   999.0
 141   16:40   51.2    29    3.0   144     6.8   999.00    691.0    999.0    999000   999000   999.0    999000   999.0
 141   16:45   51.1    29    5.6   144     8.7   999.00    691.0    999.0    999000   999000   999.0    999000   999.0
 141   16:50   50.9    29    4.9   144     7.9   999.00    691.1    999.0    999000   999000   999.0    999000   999.0
 141   16:55   51.6    30    2.8   144     4.2   999.00    691.0    999.0    999000   999000   999.0    999000   999.0
 141   17:00   52.0    29    3.1   144     5.3   999.00    691.0    999.0    999000   999000   999.0    999000   999.0
 141   17:05   52.3    29    2.8   144     4.6   999.00    691.0    999.0    999000   999000   999.0    999000   999.0
 141   17:10   52.6    29    2.7   144     6.1   999.00    691.0    999.0    999000   999000   999.0    999000   999.0
 141   17:15   52.0    27    3.6   144     5.5   999.00    691.0    999.0    999000   999000   999.0    999000   999.0
 141   17:20   52.0    27    3.3   144     4.8   999.00    690.9    999.0    999000   999000   999.0    999000   999.0
 141   17:25   52.2    27    4.7   144     7.8   999.00    690.9    999.0    999000   999000   999.0    999000   999.0
 141   17:30   51.8    28    5.2   144     8.9   999.00    690.8    999.0    999000   999000   999.0    999000   999.0
 141   17:35   51.5    28    5.8   144     9.6   999.00    690.8    999.0    999000   999000   999.0    999000   999.0
 141   17:40   51.4    30    6.4   144    11.1   999.00    690.8    999.0    999000   999000   999.0    999000   999.0
 141   17:45   51.2    29    3.8   144     6.6   999.00    690.8    999.0    999000   999000   999.0    999000   999.0
 141   17:50   51.3    29    2.9   144     4.0   999.00    690.7    999.0    999000   999000   999.0    999000   999.0
 141   17:55   51.6    29    2.8   144     3.5   999.00    690.7    999.0    999000   999000   999.0    999000   999.0
 141   18:00   51.4    29    2.4   144     3.8   999.00    690.8    999.0    999000   999000   999.0    999000   999.0
 141   18:05   51.1    29    2.4   144     3.7   999.00    690.8    999.0    999000   999000   999.0    999000   999.0
 141   18:10   51.1    28    2.2   144     3.5   999.00    690.8    999.0    999000   999000   999.0    999000   999.0
 141   18:15   50.8    29    2.3   144     3.3   999.00    690.8    999.0    999000   999000   999.0    999000   999.0
 141   18:20   51.2    29    2.1   144     2.9   999.00    690.8    999.0    999000   999000   999.0    999000   999.0
 141   18:25   50.7    29    2.0   144     3.1   999.00    690.8    999.0    999000   999000   999.0    999000   999.0
 141   18:30   50.0    29    2.2   144     2.9   999.00    690.8    999.0    999000   999000   999.0    999000   999.0
 141   18:35   49.7    30    2.0   144     2.7   999.00    690.8    999.0    999000   999000   999.0    999000   999.0
 141   18:40   49.5    30    2.0   144     2.7   999.00    690.9    999.0    999000   999000   999.0    999000   999.0
 141   18:45   49.9    30    2.1   144     2.9   999.00    690.9    999.0    999000   999000   999.0    999000   999.0
 141   18:50   49.4    30    2.2   144     3.3   999.00    690.8    999.0    999000   999000   999.0    999000   999.0
 141   18:55   49.1    31    2.5   144     3.1   999.00    690.8    999.0    999000   999000   999.0    999000   999.0
 141   19:00   49.2    30    2.4   144     2.9   999.00    690.9    999.0    999000   999000   999.0    999000   999.0
 141   19:05   49.2    29    2.3   144     2.9   999.00    690.8    999.0    999000   999000   999.0    999000   999.0
 141   19:10   48.8    30    2.0   144     2.7   999.00    690.8    999.0    999000   999000   999.0    999000   999.0
 141   19:15   49.0    29    2.4   144     2.7   999.00    690.8    999.0    999000   999000   999.0    999000   999.0
 141   19:20   49.2    28    2.2   144     2.7   999.00    690.7    999.0    999000   999000   999.0    999000   999.0
 141   19:25   49.0    28    2.2   144     3.1   999.00    690.8    999.0    999000   999000   999.0    999000   999.0
 141   19:30   48.6    28    2.2   144     2.7   999.00    690.8    999.0    999000   999000   999.0    999000   999.0
 141   19:35   48.2    29    1.9   144     2.5   999.00    690.8    999.0    999000   999000   999.0    999000   999.0
 141   19:40   48.0    30    2.2   144     3.1   999.00    690.8    999.0    999000   999000   999.0    999000   999.0
 141   19:45   48.3    29    2.1   144     3.1   999.00    690.9    999.0    999000   999000   999.0    999000   999.0
 141   19:50   48.5    29    1.8   144     1.8   999.00    690.9    999.0    999000   999000   999.0    999000   999.0
 141   19:55   48.1    29    1.8   144     1.8   999.00    690.9    999.0    999000   999000   999.0    999000   999.0
 141   20:00   48.8    27    1.8   144     1.8   999.00    691.0    999.0    999000   999000   999.0    999000   999.0
 141   20:05   49.1    27    1.8   144     1.8   999.00    691.0    999.0    999000   999000   999.0    999000   999.0
 141   20:10   49.4    25    1.8   144     1.8   999.00    691.0    999.0    999000   999000   999.0    999000   999.0
 141   20:15   49.6    25    1.8   144     1.8   999.00    691.0    999.0    999000   999000   999.0    999000   999.0
 141   20:20   49.4    26    1.8   144     1.8   999.00    691.0    999.0    999000   999000   999.0    999000   999.0
 141   20:25   49.2    26    1.8   144     1.8   999.00    691.0    999.0    999000   999000   999.0    999000   999.0
 141   20:30   49.5    26    1.8   144     1.8   999.00    691.1    999.0    999000   999000   999.0    999000   999.0

Return to DRI Storm Peak Lab. graphs page.


Western Regional Climate Center,wrcc@dri.edu